Time;durP1;ratioP1;P1;durP2;ratioP2;P2;SDS_P1;SDS_P2;PMS_P1;PMS_P2;Temp;Humidity;BMP_temperature;BMP_pressure;BME280_temperature;BME280_humidity;BME280_pressure;Samples;Min_cycle;Max_cycle;Signal;HPM_P1;HPM_P2
2021/08/23 00:02:19;;;;;;;3.33;1.70;;;20.70;64.40;;;;;;5077822;28;20182;-80
2021/08/23 00:04:51;;;;;;;3.58;1.80;;;20.70;64.50;;;;;;5042417;28;20155;-79
2021/08/23 00:07:21;;;;;;;4.05;1.80;;;20.70;64.50;;;;;;5094694;28;20583;-80
2021/08/23 00:09:51;;;;;;;3.13;1.63;;;20.70;64.80;;;;;;5025706;28;20187;-80
2021/08/23 00:12:17;;;;;;;2.97;1.88;;;20.70;64.70;;;;;;5094521;28;20274;-80
2021/08/23 00:14:42;;;;;;;3.70;1.90;;;20.70;64.40;;;;;;5028271;28;20255;-80
2021/08/23 00:17:08;;;;;;;1.70;1.52;;;20.70;64.40;;;;;;5028967;28;20209;-80
2021/08/23 00:19:34;;;;;;;2.97;1.75;;;20.70;64.30;;;;;;5029313;28;20170;-80
2021/08/23 00:22:20;;;;;;;3.05;1.67;;;20.70;64.10;;;;;;5045905;28;20673;-80
2021/08/23 00:24:48;;;;;;;2.25;1.75;;;20.70;64.50;;;;;;5093409;28;20189;-80
2021/08/23 00:27:19;;;;;;;2.03;1.70;;;20.70;64.50;;;;;;5030988;28;20181;-80
2021/08/23 00:29:48;;;;;;;2.28;1.67;;;20.70;64.30;;;;;;5105095;28;20548;-80
2021/08/23 00:32:14;;;;;;;1.80;1.60;;;20.70;64.30;;;;;;5087922;28;20182;-80
2021/08/23 00:34:45;;;;;;;4.28;2.08;;;20.70;64.40;;;;;;5069841;27;20697;-80
2021/08/23 00:37:12;;;;;;;2.78;1.77;;;20.70;64.50;;;;;;5035730;28;20216;-80
2021/08/23 00:39:38;;;;;;;1.80;1.55;;;20.60;64.40;;;;;;5036164;28;20173;-80
2021/08/23 00:42:04;;;;;;;3.08;1.88;;;20.60;64.40;;;;;;5035334;28;20176;-80
2021/08/23 00:44:35;;;;;;;2.97;2.08;;;20.70;64.50;;;;;;5036128;28;20174;-80
2021/08/23 00:47:08;;;;;;;4.72;2.17;;;20.70;64.50;;;;;;5086757;28;20186;-80
2021/08/23 00:49:38;;;;;;;2.95;2.25;;;20.60;64.50;;;;;;5087080;28;20273;-80
2021/08/23 00:52:05;;;;;;;2.38;1.98;;;20.70;65.40;;;;;;5086979;28;20249;-79
2021/08/23 00:54:31;;;;;;;2.05;1.70;;;20.70;64.50;;;;;;5051944;28;20178;-80
2021/08/23 00:57:01;;;;;;;3.08;1.50;;;20.70;64.40;;;;;;5069733;27;20196;-81
2021/08/23 00:59:35;;;;;;;2.50;1.80;;;20.70;64.40;;;;;;5018521;28;20203;-80
2021/08/23 01:02:07;;;;;;;3.17;1.90;;;20.70;64.70;;;;;;5103140;28;20185;-79
2021/08/23 01:04:57;;;;;;;2.63;1.90;;;20.70;64.50;;;;;;5103152;28;20178;-80
2021/08/23 01:07:26;;;;;;;4.15;1.98;;;20.60;64.40;;;;;;5035426;28;20226;-80
2021/08/23 01:09:57;;;;;;;2.10;1.90;;;20.70;64.60;;;;;;5035849;28;20178;-80
2021/08/23 01:12:27;;;;;;;3.65;1.67;;;20.70;64.80;;;;;;5035265;28;20174;-80
2021/08/23 01:14:53;;;;;;;4.03;1.80;;;20.70;64.70;;;;;;5100332;28;20218;-81
2021/08/23 01:17:19;;;;;;;4.07;1.83;;;20.60;64.70;;;;;;5014946;28;20201;-79
2021/08/23 01:19:52;;;;;;;2.80;1.80;;;20.60;64.80;;;;;;5049615;28;20207;-80
2021/08/23 01:22:21;;;;;;;2.95;1.80;;;20.50;64.60;;;;;;5015003;28;20182;-79
2021/08/23 01:24:48;;;;;;;2.30;1.63;;;20.60;64.80;;;;;;5101004;28;20256;-80
2021/08/23 01:27:19;;;;;;;2.42;1.60;;;20.60;64.80;;;;;;5048864;28;20173;-80
2021/08/23 01:30:08;;;;;;;2.30;1.52;;;20.60;64.90;;;;;;5100003;28;20187;-80
2021/08/23 01:32:34;;;;;;;3.25;1.77;;;20.60;64.90;;;;;;5048724;28;20701;-80
2021/08/23 01:35:03;;;;;;;2.15;1.95;;;20.60;64.90;;;;;;5049052;28;20574;-80
2021/08/23 01:37:31;;;;;;;3.17;1.77;;;20.60;64.80;;;;;;5031489;28;20250;-80
2021/08/23 01:39:57;;;;;;;3.25;2.10;;;20.60;64.80;;;;;;5045669;28;20156;-80
2021/08/23 01:42:27;;;;;;;3.00;1.67;;;20.60;64.90;;;;;;5028297;28;20185;-80
2021/08/23 01:44:53;;;;;;;2.47;1.80;;;20.60;65.00;;;;;;5080566;28;20215;-80
2021/08/23 01:47:22;;;;;;;2.53;1.83;;;20.60;64.90;;;;;;5044015;28;20182;-80
2021/08/23 01:49:52;;;;;;;2.55;1.92;;;20.60;65.40;;;;;;5097038;28;20195;-80
2021/08/23 01:52:18;;;;;;;2.35;1.80;;;20.60;64.80;;;;;;5027744;28;20198;-80
2021/08/23 01:54:49;;;;;;;1.65;1.52;;;20.60;64.70;;;;;;5045997;28;20161;-80
2021/08/23 01:57:20;;;;;;;2.45;1.77;;;20.60;64.70;;;;;;5096910;28;20249;-80
2021/08/23 01:59:49;;;;;;;4.47;1.90;;;20.60;64.70;;;;;;5113790;28;20251;-80
2021/08/23 02:02:15;;;;;;;2.17;1.70;;;20.60;64.80;;;;;;5080377;28;20190;-80
2021/08/23 02:04:48;;;;;;;1.98;1.77;;;20.60;64.70;;;;;;5027801;28;20163;-80
2021/08/23 02:07:19;;;;;;;3.30;1.70;;;20.60;64.70;;;;;;5011208;28;20178;-80
2021/08/23 02:09:51;;;;;;;2.13;1.85;;;20.60;64.70;;;;;;5096639;28;20614;-80
2021/08/23 02:12:17;;;;;;;1.90;1.70;;;20.60;64.70;;;;;;5011511;28;20193;-80
2021/08/23 02:14:42;;;;;;;4.15;1.85;;;20.60;64.80;;;;;;5045644;28;20194;-80
2021/08/23 02:17:13;;;;;;;2.22;1.70;;;20.60;65.20;;;;;;5048037;28;20616;-80
2021/08/23 02:19:43;;;;;;;3.38;1.90;;;20.60;65.20;;;;;;5099291;28;20174;-80
2021/08/23 02:22:09;;;;;;;2.45;1.67;;;20.60;65.10;;;;;;5100377;28;20182;-80
2021/08/23 02:24:35;;;;;;;3.53;1.90;;;20.50;65.00;;;;;;5047815;28;20157;-79
2021/08/23 02:27:01;;;;;;;3.35;1.70;;;20.50;65.20;;;;;;5047630;28;20166;-80
2021/08/23 02:29:31;;;;;;;2.08;1.88;;;20.50;65.40;;;;;;5030835;28;20166;-79
2021/08/23 02:32:00;;;;;;;1.95;1.70;;;20.50;65.30;;;;;;5116957;28;20190;-80
2021/08/23 02:34:31;;;;;;;3.00;1.80;;;20.50;65.30;;;;;;5099104;28;20197;-80
2021/08/23 02:37:01;;;;;;;3.35;1.80;;;20.50;65.20;;;;;;5116176;28;20296;-79
2021/08/23 02:39:27;;;;;;;2.22;1.70;;;20.60;65.20;;;;;;5116319;28;20193;-80
2021/08/23 02:41:54;;;;;;;2.85;1.70;;;20.50;65.00;;;;;;5030976;28;20162;-80
2021/08/23 02:44:21;;;;;;;2.42;1.90;;;20.60;65.00;;;;;;5030818;28;20163;-80
2021/08/23 02:46:47;;;;;;;2.75;2.00;;;20.50;64.90;;;;;;5047527;28;20162;-80
2021/08/23 02:49:16;;;;;;;3.45;1.85;;;20.50;65.00;;;;;;5030080;28;20177;-80
2021/08/23 02:51:43;;;;;;;3.60;1.73;;;20.50;65.00;;;;;;5046412;28;20168;-80
2021/08/23 02:54:13;;;;;;;2.88;1.60;;;20.60;65.60;;;;;;5065062;28;20162;-80
2021/08/23 02:56:43;;;;;;;2.22;1.90;;;20.50;65.60;;;;;;5082260;28;20182;-80
2021/08/23 02:59:16;;;;;;;2.65;1.80;;;20.50;65.20;;;;;;5115848;28;20182;-80
2021/08/23 03:01:43;;;;;;;2.13;1.80;;;20.50;65.60;;;;;;5098920;28;20186;-80
2021/08/23 03:04:13;;;;;;;2.72;1.80;;;20.50;65.60;;;;;;5046504;28;20159;-80
2021/08/23 03:06:44;;;;;;;2.35;1.80;;;20.50;65.60;;;;;;5098412;28;20178;-80
2021/08/23 03:09:10;;;;;;;3.05;1.50;;;20.50;65.30;;;;;;5081969;28;20203;-80
2021/08/23 03:11:36;;;;;;;2.10;1.80;;;20.50;65.20;;;;;;5030081;28;20163;-80
2021/08/23 03:14:02;;;;;;;2.00;1.63;;;20.50;65.00;;;;;;5046275;28;20190;-79
2021/08/23 03:16:32;;;;;;;2.25;1.73;;;20.50;65.10;;;;;;5009663;28;20721;-80
2021/08/23 03:18:58;;;;;;;2.67;1.60;;;20.50;65.00;;;;;;5075058;28;20248;-80
2021/08/23 03:21:30;;;;;;;3.22;1.70;;;20.50;65.10;;;;;;5007004;28;20678;-80
2021/08/23 03:24:00;;;;;;;2.33;1.95;;;20.50;65.50;;;;;;5074641;28;20183;-80
2021/08/23 03:26:26;;;;;;;2.10;1.73;;;20.50;65.40;;;;;;5058554;28;20188;-79
2021/08/23 03:28:52;;;;;;;3.20;1.70;;;20.50;65.80;;;;;;5023295;28;20158;-80
2021/08/23 03:31:23;;;;;;;2.10;1.90;;;20.40;65.60;;;;;;5006487;28;20191;-80
2021/08/23 03:33:53;;;;;;;2.50;1.83;;;20.40;65.40;;;;;;4989514;28;20195;-79
2021/08/23 03:36:23;;;;;;;2.47;1.70;;;20.50;65.40;;;;;;5074810;28;20668;-80
2021/08/23 03:38:49;;;;;;;2.78;1.73;;;20.50;65.70;;;;;;5057811;28;20191;-80
2021/08/23 03:41:19;;;;;;;2.22;1.70;;;20.50;66.00;;;;;;5024822;28;20164;-80
2021/08/23 03:43:45;;;;;;;2.88;1.80;;;20.50;65.70;;;;;;5005534;28;20222;-79
2021/08/23 03:46:11;;;;;;;2.33;1.50;;;20.40;65.30;;;;;;5006774;28;20168;-80
2021/08/23 03:48:38;;;;;;;3.25;1.60;;;20.50;65.40;;;;;;5024215;28;20169;-80
2021/08/23 03:51:04;;;;;;;1.75;1.65;;;20.40;65.20;;;;;;5023554;28;20178;-80
2021/08/23 03:53:34;;;;;;;2.75;1.95;;;20.50;65.40;;;;;;5006386;28;20167;-80
2021/08/23 03:56:00;;;;;;;2.22;1.75;;;20.50;65.30;;;;;;5074303;28;20189;-79
2021/08/23 03:58:27;;;;;;;2.67;1.63;;;20.50;65.40;;;;;;5024135;28;20207;-79
2021/08/23 04:00:58;;;;;;;1.70;1.50;;;20.40;65.40;;;;;;5024133;28;20161;-79
2021/08/23 04:03:25;;;;;;;1.63;1.48;;;20.50;65.30;;;;;;4988500;28;20217;-80
2021/08/23 04:05:51;;;;;;;2.78;1.60;;;20.50;65.40;;;;;;5006271;28;20202;-79
2021/08/23 04:08:20;;;;;;;3.17;1.80;;;20.50;65.50;;;;;;5023643;28;20198;-80
2021/08/23 04:10:47;;;;;;;1.88;1.75;;;20.40;65.40;;;;;;5006122;28;20243;-80
2021/08/23 04:13:17;;;;;;;1.73;1.63;;;20.40;65.20;;;;;;5006018;28;20195;-79
2021/08/23 04:15:47;;;;;;;1.60;1.50;;;20.50;65.60;;;;;;5097860;28;20570;-79
2021/08/23 04:18:13;;;;;;;2.67;1.60;;;20.40;65.40;;;;;;5109143;28;20206;-80
2021/08/23 04:20:40;;;;;;;2.42;1.70;;;20.40;65.20;;;;;;5126115;28;20245;-79
2021/08/23 04:23:11;;;;;;;2.78;1.63;;;20.50;65.60;;;;;;5126211;28;20213;-79
2021/08/23 04:25:37;;;;;;;2.42;1.65;;;20.40;64.90;;;;;;5107979;28;20211;-79
2021/08/23 04:28:03;;;;;;;1.80;1.40;;;20.40;64.60;;;;;;5126574;28;20163;-79
2021/08/23 04:30:29;;;;;;;2.03;1.77;;;20.40;64.10;;;;;;5109115;28;20160;-79
2021/08/23 04:32:55;;;;;;;3.03;1.88;;;20.40;63.50;;;;;;5109256;28;20163;-80
2021/08/23 04:35:21;;;;;;;1.95;1.50;;;20.30;63.20;;;;;;5127175;28;20623;-79
2021/08/23 04:37:51;;;;;;;1.55;1.45;;;20.40;63.60;;;;;;5125425;28;20192;-79
2021/08/23 04:40:17;;;;;;;1.60;1.40;;;20.40;62.90;;;;;;5091191;28;20538;-79
2021/08/23 04:42:43;;;;;;;1.60;1.50;;;20.40;62.50;;;;;;5109061;28;20156;-79
2021/08/23 04:45:14;;;;;;;2.35;1.65;;;20.40;62.40;;;;;;5125671;28;20179;-79
2021/08/23 04:47:44;;;;;;;2.38;1.50;;;20.30;62.20;;;;;;5090505;28;20211;-79
2021/08/23 04:50:11;;;;;;;2.17;1.45;;;20.40;61.80;;;;;;5107745;28;20244;-79
2021/08/23 04:52:44;;;;;;;2.15;1.75;;;20.30;61.40;;;;;;5108441;28;20183;-79
2021/08/23 04:55:11;;;;;;;1.50;1.40;;;20.40;61.40;;;;;;5090687;28;20267;-79
2021/08/23 04:57:37;;;;;;;1.80;1.52;;;20.30;61.00;;;;;;5125367;28;20188;-79
2021/08/23 05:00:04;;;;;;;1.40;1.30;;;20.40;61.70;;;;;;5126623;28;20152;-79
2021/08/23 05:02:30;;;;;;;1.80;1.38;;;20.40;60.60;;;;;;5109129;28;20160;-79
2021/08/23 05:05:01;;;;;;;1.60;1.50;;;20.40;60.70;;;;;;5125400;28;20160;-79
2021/08/23 05:07:36;;;;;;;1.75;1.60;;;20.40;60.50;;;;;;5124942;28;20180;-80
2021/08/23 05:10:06;;;;;;;1.48;1.38;;;20.40;61.30;;;;;;5107626;28;20186;-79
2021/08/23 05:12:36;;;;;;;1.65;1.55;;;20.40;60.80;;;;;;5124538;28;20183;-79
2021/08/23 05:15:02;;;;;;;1.55;1.30;;;20.40;60.70;;;;;;5127781;28;20306;-79
2021/08/23 05:17:28;;;;;;;2.10;1.50;;;20.40;60.60;;;;;;5129369;28;20670;-79
2021/08/23 05:19:59;;;;;;;1.50;1.40;;;20.40;60.80;;;;;;5112015;28;20164;-79
2021/08/23 05:22:25;;;;;;;1.45;1.35;;;20.50;60.70;;;;;;5111611;28;20230;-80
2021/08/23 05:24:51;;;;;;;2.38;1.50;;;20.50;60.90;;;;;;5129095;28;20603;-79
2021/08/23 05:27:21;;;;;;;3.03;1.65;;;20.50;61.30;;;;;;5112431;28;20246;-79
2021/08/23 05:29:51;;;;;;;1.63;1.45;;;20.50;61.40;;;;;;5093790;28;20263;-79
2021/08/23 05:32:22;;;;;;;1.80;1.70;;;20.50;61.30;;;;;;5111260;28;20190;-79
2021/08/23 05:34:48;;;;;;;2.00;1.73;;;20.60;60.80;;;;;;5128233;28;20658;-79
2021/08/23 05:37:14;;;;;;;2.78;1.70;;;20.60;61.00;;;;;;5130280;28;20209;-79
2021/08/23 05:39:44;;;;;;;1.60;1.50;;;20.70;61.20;;;;;;5130614;28;20148;-79
2021/08/23 05:42:10;;;;;;;1.50;1.33;;;20.70;60.80;;;;;;5111975;28;20207;-80
2021/08/23 05:44:41;;;;;;;1.52;1.35;;;20.70;61.30;;;;;;5129733;28;20587;-79
2021/08/23 05:47:07;;;;;;;2.40;1.55;;;20.70;60.80;;;;;;5127977;28;20230;-79
2021/08/23 05:49:37;;;;;;;1.55;1.38;;;20.70;61.20;;;;;;5128871;28;20152;-79
2021/08/23 05:52:03;;;;;;;2.80;1.90;;;20.80;60.60;;;;;;5093089;28;20187;-79
2021/08/23 05:54:33;;;;;;;1.45;1.33;;;20.80;61.40;;;;;;5128857;28;20188;-79
2021/08/23 05:57:00;;;;;;;2.05;1.60;;;20.80;60.60;;;;;;5110910;28;20256;-80
2021/08/23 05:59:31;;;;;;;1.95;1.52;;;20.80;61.10;;;;;;5130099;28;20151;-79
2021/08/23 06:01:57;;;;;;;1.83;1.58;;;20.70;61.30;;;;;;5110512;28;20180;-79
2021/08/23 06:04:27;;;;;;;1.90;1.50;;;20.80;61.60;;;;;;5128281;28;20156;-79
2021/08/23 06:06:53;;;;;;;3.70;1.73;;;20.80;61.80;;;;;;5104618;28;20234;-79
2021/08/23 06:09:20;;;;;;;2.03;1.45;;;20.90;61.80;;;;;;5106517;28;20172;-80
2021/08/23 06:11:47;;;;;;;2.05;1.70;;;20.80;61.50;;;;;;5091106;28;20196;-77
2021/08/23 06:14:13;;;;;;;1.90;1.70;;;20.90;61.60;;;;;;5108689;28;20164;-80
2021/08/23 06:16:39;;;;;;;2.28;1.58;;;20.90;61.40;;;;;;4997966;28;20223;-80
2021/08/23 06:19:11;;;;;;;2.10;1.50;;;20.80;61.40;;;;;;5004337;28;20159;-80
2021/08/23 06:21:37;;;;;;;1.70;1.50;;;20.70;61.60;;;;;;4987023;28;20180;-80
2021/08/23 06:24:11;;;;;;;1.60;1.50;;;20.80;61.30;;;;;;4987702;28;20194;-82
2021/08/23 06:26:37;;;;;;;1.40;1.30;;;20.90;60.90;;;;;;4986749;28;20245;-80
2021/08/23 06:29:03;;;;;;;2.15;1.65;;;21.00;60.80;;;;;;5003870;28;20164;-80
2021/08/23 06:31:30;;;;;;;1.70;1.60;;;20.90;60.90;;;;;;4986814;28;20643;-78
2021/08/23 06:34:00;;;;;;;2.17;1.50;;;20.90;61.00;;;;;;5019005;28;20168;-80
2021/08/23 06:36:31;;;;;;;2.22;1.63;;;20.80;60.90;;;;;;5037936;28;20215;-79
2021/08/23 06:39:12;;;;;;;2.95;1.60;;;20.80;61.10;;;;;;5071257;28;20226;-79
2021/08/23 06:41:43;;;;;;;1.70;1.42;;;20.90;61.10;;;;;;4970316;28;20180;-79
2021/08/23 06:44:20;;;;;;;1.90;1.50;;;20.90;60.20;;;;;;5054991;28;20180;-79
2021/08/23 06:46:46;;;;;;;1.85;1.45;;;20.90;60.20;;;;;;5053291;28;20176;-79
2021/08/23 06:49:15;;;;;;;2.83;1.40;;;21.00;60.30;;;;;;5001345;28;20220;-81
2021/08/23 06:51:41;;;;;;;2.13;1.52;;;21.00;60.20;;;;;;5002210;28;20160;-80
2021/08/23 06:54:12;;;;;;;3.28;1.50;;;21.00;60.20;;;;;;5003226;28;20156;-80
2021/08/23 06:56:44;;;;;;;3.15;1.70;;;21.00;60.20;;;;;;5069313;28;20183;-80
2021/08/23 06:59:10;;;;;;;2.83;1.35;;;21.00;60.10;;;;;;4968685;28;20214;-79
2021/08/23 07:01:36;;;;;;;1.80;1.33;;;21.10;60.10;;;;;;5001531;28;20153;-81
2021/08/23 07:04:03;;;;;;;2.38;1.30;;;21.00;60.20;;;;;;5002453;28;20168;-78
2021/08/23 07:06:29;;;;;;;2.15;1.42;;;21.20;59.70;;;;;;5002399;28;20169;-78
2021/08/23 07:09:01;;;;;;;1.80;1.60;;;21.20;59.60;;;;;;5003420;28;20678;-80
2021/08/23 07:11:30;;;;;;;2.05;1.55;;;21.20;59.70;;;;;;4968393;28;20223;-78
2021/08/23 07:13:56;;;;;;;1.85;1.60;;;21.10;59.90;;;;;;4985425;28;20658;-79
2021/08/23 07:16:26;;;;;;;1.50;1.30;;;21.10;59.90;;;;;;5017860;28;20219;-78
2021/08/23 07:18:56;;;;;;;3.92;1.45;;;21.00;59.60;;;;;;5090162;28;20226;-78
2021/08/23 07:21:22;;;;;;;3.72;1.42;;;21.10;59.70;;;;;;5021200;28;20266;-79
2021/08/23 07:23:52;;;;;;;1.60;1.50;;;21.10;60.00;;;;;;5021047;28;20160;-79
2021/08/23 07:26:18;;;;;;;1.67;1.45;;;21.10;60.30;;;;;;5056680;28;20204;-78
2021/08/23 07:28:44;;;;;;;1.55;1.35;;;21.10;59.60;;;;;;5004663;28;20205;-77
2021/08/23 07:31:10;;;;;;;2.38;1.80;;;21.10;59.30;;;;;;5021603;28;20167;-78
2021/08/23 07:33:36;;;;;;;2.47;1.48;;;21.10;60.10;;;;;;5005464;28;20167;-78
2021/08/23 07:36:06;;;;;;;1.52;1.42;;;21.10;58.80;;;;;;5023848;28;20187;-78
2021/08/23 07:38:37;;;;;;;3.70;1.60;;;21.20;58.80;;;;;;5073656;28;20222;-77
2021/08/23 07:41:07;;;;;;;1.48;1.27;;;21.30;58.30;;;;;;5056468;28;20191;-77
2021/08/23 07:43:33;;;;;;;1.70;1.50;;;21.20;57.50;;;;;;5004905;28;20187;-77
2021/08/23 07:45:59;;;;;;;2.10;1.65;;;21.20;57.70;;;;;;5022677;28;20185;-76
2021/08/23 07:48:29;;;;;;;1.63;1.30;;;21.00;58.30;;;;;;5023417;28;20188;-77
2021/08/23 07:50:55;;;;;;;1.60;1.50;;;20.90;57.80;;;;;;5073359;28;20527;-78
2021/08/23 07:53:25;;;;;;;1.90;1.55;;;20.90;57.70;;;;;;5005125;28;20171;-78
2021/08/23 07:55:51;;;;;;;1.52;1.42;;;20.90;57.30;;;;;;5073207;28;20206;-78
2021/08/23 07:58:17;;;;;;;1.25;1.15;;;20.90;57.10;;;;;;5022129;28;20198;-77
2021/08/23 08:00:43;;;;;;;2.00;1.30;;;20.70;57.00;;;;;;5021676;28;20151;-77
2021/08/23 08:03:14;;;;;;;2.25;1.50;;;20.70;56.20;;;;;;5005452;28;20172;-78
2021/08/23 08:05:44;;;;;;;1.60;1.50;;;20.70;56.70;;;;;;5089984;28;20183;-77
2021/08/23 08:08:15;;;;;;;2.55;1.70;;;20.70;55.10;;;;;;5020425;28;20274;-77
2021/08/23 08:10:41;;;;;;;2.88;1.60;;;20.70;56.30;;;;;;5055910;28;20194;-77
2021/08/23 08:13:13;;;;;;;1.40;1.30;;;20.70;56.40;;;;;;5021370;28;20175;-79
2021/08/23 08:15:40;;;;;;;1.33;1.20;;;20.70;54.40;;;;;;5003824;28;20234;-78
2021/08/23 08:18:06;;;;;;;1.65;1.40;;;20.70;54.50;;;;;;5005060;28;20251;-78
2021/08/23 08:20:38;;;;;;;1.70;1.30;;;20.70;54.60;;;;;;5005167;28;20246;-78
2021/08/23 08:23:13;;;;;;;4.68;1.42;;;20.70;54.80;;;;;;5055360;28;20273;-78
2021/08/23 08:25:46;;;;;;;2.70;1.40;;;20.70;54.90;;;;;;5020899;28;20676;-77
2021/08/23 08:28:16;;;;;;;1.88;1.30;;;20.70;55.40;;;;;;5072310;28;20192;-77
2021/08/23 08:30:42;;;;;;;4.20;1.50;;;20.60;55.50;;;;;;5003125;28;20198;-77
2021/08/23 08:33:08;;;;;;;4.47;1.40;;;20.60;55.60;;;;;;5020936;28;20235;-78
2021/08/23 08:35:34;;;;;;;6.78;1.67;;;20.60;54.80;;;;;;5017970;28;20160;-78
2021/08/23 08:38:06;;;;;;;2.03;1.30;;;20.60;55.50;;;;;;5004092;28;20195;-78
2021/08/23 08:40:35;;;;;;;2.53;1.63;;;20.60;54.40;;;;;;5070855;28;20187;-78
2021/08/23 08:43:05;;;;;;;3.08;1.50;;;20.60;55.00;;;;;;5071943;28;20272;-77
2021/08/23 08:45:31;;;;;;;1.40;1.20;;;20.50;55.00;;;;;;5056054;28;20180;-78
2021/08/23 08:48:02;;;;;;;2.45;1.63;;;20.50;54.80;;;;;;5022068;28;20199;-79
2021/08/23 08:50:32;;;;;;;2.70;1.65;;;20.60;54.40;;;;;;5075839;28;20224;-78
2021/08/23 08:52:58;;;;;;;3.00;1.60;;;20.60;54.00;;;;;;5093768;28;20190;-78
2021/08/23 08:55:25;;;;;;;2.17;1.58;;;20.70;53.20;;;;;;5008040;28;20177;-79
2021/08/23 08:57:55;;;;;;;4.20;1.63;;;20.70;52.60;;;;;;5008947;28;20278;-79
2021/08/23 09:00:25;;;;;;;2.28;1.45;;;20.70;53.60;;;;;;5093650;28;20179;-79
2021/08/23 09:03:00;;;;;;;2.95;1.63;;;20.70;52.80;;;;;;5060258;28;20183;-79
2021/08/23 09:05:37;;;;;;;2.80;1.52;;;20.70;52.70;;;;;;5092445;28;20193;-79
2021/08/23 09:08:07;;;;;;;3.60;1.45;;;20.60;53.70;;;;;;5008934;28;20206;-79
2021/08/23 09:10:34;;;;;;;4.10;1.63;;;20.70;52.60;;;;;;5093946;28;20186;-77
2021/08/23 09:13:07;;;;;;;1.50;1.40;;;20.80;52.40;;;;;;5026611;28;20155;-78
2021/08/23 09:15:34;;;;;;;2.03;1.48;;;20.80;52.60;;;;;;5076092;28;20223;-78
2021/08/23 09:18:06;;;;;;;1.80;1.65;;;20.70;52.30;;;;;;5025143;28;20191;-78
2021/08/23 09:20:33;;;;;;;2.63;1.50;;;20.70;52.60;;;;;;5093344;28;20210;-79
2021/08/23 09:23:16;;;;;;;2.53;1.70;;;20.80;52.10;;;;;;5024000;28;20231;-79
2021/08/23 09:25:47;;;;;;;1.80;1.40;;;20.80;51.70;;;;;;5024633;28;20147;-77
2021/08/23 09:28:19;;;;;;;2.03;1.40;;;20.70;52.30;;;;;;5093703;28;20187;-77
2021/08/23 09:30:59;;;;;;;1.50;1.40;;;20.70;51.70;;;;;;5076588;28;20196;-76
2021/08/23 09:33:25;;;;;;;2.70;1.50;;;20.70;51.40;;;;;;5025942;28;20183;-77
2021/08/23 09:35:52;;;;;;;2.17;1.60;;;20.70;51.40;;;;;;5026163;28;20164;-76
2021/08/23 09:38:23;;;;;;;2.13;1.70;;;20.70;51.50;;;;;;5026125;28;20218;-76
2021/08/23 09:40:51;;;;;;;1.90;1.50;;;20.80;51.50;;;;;;5093620;28;20192;-77
2021/08/23 09:43:17;;;;;;;1.48;1.33;;;20.80;51.40;;;;;;5025367;28;20156;-77
2021/08/23 09:45:47;;;;;;;1.50;1.30;;;20.80;51.00;;;;;;5025992;28;20159;-77
2021/08/23 09:48:17;;;;;;;2.05;1.38;;;20.80;51.10;;;;;;5026150;28;20521;-76
2021/08/23 09:50:48;;;;;;;2.75;1.40;;;20.80;50.90;;;;;;5093004;28;20191;-76
2021/08/23 09:53:15;;;;;;;2.28;1.50;;;20.70;51.40;;;;;;5093255;28;20198;-77
2021/08/23 09:55:48;;;;;;;2.42;1.48;;;20.70;51.20;;;;;;5025628;28;20240;-77
2021/08/23 09:58:14;;;;;;;2.42;1.40;;;20.70;51.10;;;;;;5075308;28;20221;-77
2021/08/23 10:00:45;;;;;;;2.75;1.45;;;20.70;51.40;;;;;;5021515;28;20156;-78
2021/08/23 10:03:18;;;;;;;1.70;1.60;;;20.70;51.20;;;;;;5091355;28;20218;-79
2021/08/23 10:05:49;;;;;;;1.42;1.33;;;20.70;51.40;;;;;;5073791;28;20202;-79
2021/08/23 10:08:17;;;;;;;1.70;1.50;;;20.70;51.20;;;;;;5090593;28;20203;-78
2021/08/23 10:10:43;;;;;;;1.80;1.50;;;20.70;51.40;;;;;;5006134;28;20195;-79
2021/08/23 10:13:14;;;;;;;2.42;1.50;;;20.70;52.10;;;;;;5087581;28;20207;-79
2021/08/23 10:15:39;;;;;;;1.92;1.40;;;20.60;51.40;;;;;;5054488;28;20220;-79
2021/08/23 10:18:06;;;;;;;3.03;1.80;;;20.60;51.40;;;;;;5071698;28;20220;-79
2021/08/23 10:20:36;;;;;;;2.10;1.60;;;20.60;51.40;;;;;;5087398;28;20153;-79
2021/08/23 10:23:06;;;;;;;1.95;1.48;;;20.70;51.30;;;;;;5054554;28;20216;-79
2021/08/23 10:25:33;;;;;;;1.92;1.67;;;20.70;51.20;;;;;;5070997;28;20251;-79
2021/08/23 10:28:13;;;;;;;1.80;1.50;;;20.70;51.30;;;;;;5069723;28;20192;-80
2021/08/23 10:30:39;;;;;;;1.92;1.45;;;20.70;51.50;;;;;;5087951;28;20157;-77
2021/08/23 10:33:14;;;;;;;1.75;1.50;;;20.70;51.30;;;;;;5106252;28;20184;-78
2021/08/23 10:35:56;;;;;;;2.40;2.08;;;20.60;51.30;;;;;;5054064;28;20233;-78
2021/08/23 10:38:24;;;;;;;1.92;1.65;;;20.60;51.30;;;;;;5085939;28;20619;-78
2021/08/23 10:41:04;;;;;;;1.70;1.50;;;20.60;51.40;;;;;;5116781;28;20583;-79
2021/08/23 10:43:33;;;;;;;1.88;1.50;;;20.60;51.20;;;;;;5103910;28;20198;-79
2021/08/23 10:45:59;;;;;;;1.92;1.60;;;20.60;51.30;;;;;;5040683;28;20159;-78
2021/08/23 10:48:25;;;;;;;2.28;1.70;;;20.60;51.30;;;;;;5041399;28;20163;-79
2021/08/23 10:51:03;;;;;;;3.45;1.67;;;20.60;51.20;;;;;;5044065;28;20156;-78
2021/08/23 10:53:34;;;;;;;1.98;1.65;;;20.60;51.10;;;;;;5042383;28;20158;-78
2021/08/23 10:56:11;;;;;;;2.03;1.73;;;20.60;51.20;;;;;;5040910;28;20178;-78
2021/08/23 10:58:39;;;;;;;2.67;1.73;;;20.60;51.30;;;;;;5040960;28;20214;-79
2021/08/23 11:01:21;;;;;;;2.45;1.80;;;20.60;51.20;;;;;;5038017;28;20303;-78
2021/08/23 11:03:59;;;;;;;2.00;1.58;;;20.50;51.20;;;;;;5093326;28;20182;-78
2021/08/23 11:06:26;;;;;;;3.83;1.90;;;20.70;50.90;;;;;;5043400;28;20258;-79
2021/08/23 11:09:11;;;;;;;2.25;1.77;;;20.80;50.50;;;;;;5026512;28;20177;-79
2021/08/23 11:11:40;;;;;;;2.20;1.80;;;20.90;50.70;;;;;;5026472;28;20178;-79
2021/08/23 11:14:22;;;;;;;2.45;1.83;;;20.90;50.50;;;;;;5111521;28;20218;-79
2021/08/23 11:16:52;;;;;;;2.25;1.70;;;21.00;50.40;;;;;;5043392;28;20347;-79
2021/08/23 11:19:20;;;;;;;2.58;1.70;;;21.10;50.10;;;;;;5026835;28;20166;-79
2021/08/23 11:21:54;;;;;;;2.47;1.88;;;21.10;50.20;;;;;;5043012;28;20269;-78
2021/08/23 11:24:28;;;;;;;3.38;1.90;;;21.20;50.00;;;;;;5044073;28;20165;-78
2021/08/23 11:26:56;;;;;;;2.58;2.05;;;21.10;50.20;;;;;;5023547;28;20609;-79
2021/08/23 11:29:22;;;;;;;3.20;1.98;;;21.20;50.00;;;;;;5023140;28;20148;-79
2021/08/23 11:31:58;;;;;;;1.80;1.63;;;21.20;49.80;;;;;;5042935;28;20194;-79
2021/08/23 11:34:27;;;;;;;2.00;1.80;;;21.30;49.60;;;;;;5077775;28;20335;-79
2021/08/23 11:37:00;;;;;;;2.55;2.10;;;21.30;49.50;;;;;;5025521;28;20187;-79
2021/08/23 11:39:31;;;;;;;2.47;1.85;;;21.30;49.60;;;;;;5010216;28;20205;-79
2021/08/23 11:42:01;;;;;;;2.50;1.95;;;21.30;49.40;;;;;;5094801;28;20183;-80
2021/08/23 11:44:27;;;;;;;2.50;1.88;;;21.30;49.50;;;;;;5077194;28;20187;-79
2021/08/23 11:47:01;;;;;;;2.20;1.70;;;21.30;49.40;;;;;;5009537;28;20179;-79
2021/08/23 11:49:31;;;;;;;2.70;2.00;;;21.30;49.30;;;;;;5043532;28;20150;-80
2021/08/23 11:51:58;;;;;;;2.25;1.90;;;21.30;49.10;;;;;;5043107;28;20147;-79
2021/08/23 11:54:25;;;;;;;2.33;1.80;;;21.40;49.10;;;;;;5043874;28;20154;-79
2021/08/23 11:56:51;;;;;;;2.03;1.77;;;21.40;48.90;;;;;;5043878;28;20167;-79
2021/08/23 11:59:18;;;;;;;1.88;1.67;;;21.50;48.70;;;;;;5026168;28;20171;-79
2021/08/23 12:01:48;;;;;;;1.95;1.73;;;21.40;48.70;;;;;;5094402;28;20179;-79
2021/08/23 12:04:23;;;;;;;2.08;1.73;;;21.40;48.80;;;;;;5024831;28;20246;-79
2021/08/23 12:06:57;;;;;;;2.75;2.05;;;21.20;48.90;;;;;;5110425;28;20273;-78
2021/08/23 12:09:28;;;;;;;2.70;2.10;;;21.30;49.10;;;;;;5110992;28;20182;-79
2021/08/23 12:11:56;;;;;;;2.35;2.03;;;21.40;49.10;;;;;;5025859;28;20248;-79
2021/08/23 12:14:28;;;;;;;2.38;1.73;;;21.30;49.10;;;;;;5111867;28;20182;-78
2021/08/23 12:17:05;;;;;;;2.38;1.90;;;21.30;48.90;;;;;;5093353;28;20229;-78
2021/08/23 12:19:32;;;;;;;2.33;1.80;;;21.20;49.10;;;;;;5022820;28;20199;-79
2021/08/23 12:22:04;;;;;;;2.58;1.73;;;21.40;48.80;;;;;;5091885;28;20187;-79
2021/08/23 12:24:34;;;;;;;3.00;2.10;;;21.30;48.80;;;;;;5088965;28;20189;-78
2021/08/23 12:27:02;;;;;;;3.15;2.08;;;21.40;48.80;;;;;;5108761;28;20183;-78
2021/08/23 12:29:36;;;;;;;3.25;2.10;;;21.40;48.90;;;;;;5107891;28;20196;-78
2021/08/23 12:32:11;;;;;;;2.65;2.20;;;21.30;48.80;;;;;;5089536;28;20190;-79
2021/08/23 12:34:47;;;;;;;2.85;1.98;;;21.30;48.70;;;;;;5108045;28;20185;-78
2021/08/23 12:37:15;;;;;;;2.95;2.17;;;21.30;48.50;;;;;;5107666;28;20383;-78
2021/08/23 12:39:44;;;;;;;4.80;2.25;;;21.20;48.40;;;;;;5074278;28;20185;-78
2021/08/23 12:42:11;;;;;;;3.05;2.10;;;21.30;48.30;;;;;;5091389;28;20193;-79
2021/08/23 12:44:38;;;;;;;2.53;1.90;;;21.30;48.30;;;;;;5091036;28;20538;-78
2021/08/23 12:47:11;;;;;;;3.05;2.08;;;21.30;48.30;;;;;;5090734;28;20244;-80
2021/08/23 12:49:36;;;;;;;3.05;2.10;;;21.20;48.30;;;;;;5038263;28;20174;-79
2021/08/23 12:52:02;;;;;;;3.13;2.00;;;21.10;48.40;;;;;;5038571;28;20597;-79
2021/08/23 12:54:28;;;;;;;2.40;2.20;;;21.20;48.40;;;;;;5039053;28;20155;-79
2021/08/23 12:56:58;;;;;;;3.10;1.90;;;21.20;48.60;;;;;;5039560;28;20167;-79
2021/08/23 12:59:30;;;;;;;2.33;1.75;;;21.20;48.50;;;;;;5107992;28;20183;-79